sensor_id;sensor_type;location;lat;lon;timestamp;P1;durP1;ratioP1;P2;durP2;ratioP2
9176;SDS011;4623;54.310;10.112;2022-07-19T00:02:16;6.70;;;5.10;;
9176;SDS011;4623;54.310;10.112;2022-07-19T00:04:42;4.50;;;4.05;;
9176;SDS011;4623;54.310;10.112;2022-07-19T00:07:08;4.82;;;4.32;;
9176;SDS011;4623;54.310;10.112;2022-07-19T00:09:33;4.88;;;4.35;;
9176;SDS011;4623;54.310;10.112;2022-07-19T00:11:59;5.07;;;4.13;;
9176;SDS011;4623;54.310;10.112;2022-07-19T00:14:25;5.63;;;4.50;;
9176;SDS011;4623;54.310;10.112;2022-07-19T00:16:50;6.88;;;4.82;;
9176;SDS011;4623;54.310;10.112;2022-07-19T00:19:16;4.65;;;4.03;;
9176;SDS011;4623;54.310;10.112;2022-07-19T00:21:42;4.25;;;3.80;;
9176;SDS011;4623;54.310;10.112;2022-07-19T00:24:08;4.32;;;3.92;;
9176;SDS011;4623;54.310;10.112;2022-07-19T00:26:33;4.47;;;4.07;;
9176;SDS011;4623;54.310;10.112;2022-07-19T00:28:59;5.55;;;4.40;;
9176;SDS011;4623;54.310;10.112;2022-07-19T00:31:26;4.55;;;4.15;;
9176;SDS011;4623;54.310;10.112;2022-07-19T00:33:52;5.15;;;4.68;;
9176;SDS011;4623;54.310;10.112;2022-07-19T00:36:18;5.93;;;3.85;;
9176;SDS011;4623;54.310;10.112;2022-07-19T00:38:44;4.85;;;4.25;;
9176;SDS011;4623;54.310;10.112;2022-07-19T00:41:11;4.32;;;3.92;;
9176;SDS011;4623;54.310;10.112;2022-07-19T00:43:40;5.25;;;4.10;;
9176;SDS011;4623;54.310;10.112;2022-07-19T00:46:15;4.15;;;3.75;;
9176;SDS011;4623;54.310;10.112;2022-07-19T00:48:42;4.28;;;3.88;;
9176;SDS011;4623;54.310;10.112;2022-07-19T00:51:09;5.00;;;4.40;;
9176;SDS011;4623;54.310;10.112;2022-07-19T00:53:36;5.05;;;4.38;;
9176;SDS011;4623;54.310;10.112;2022-07-19T00:56:03;5.28;;;4.43;;
9176;SDS011;4623;54.310;10.112;2022-07-19T00:58:33;5.00;;;4.53;;
9176;SDS011;4623;54.310;10.112;2022-07-19T01:01:00;4.95;;;4.47;;
9176;SDS011;4623;54.310;10.112;2022-07-19T01:03:26;5.22;;;4.05;;
9176;SDS011;4623;54.310;10.112;2022-07-19T01:05:52;4.90;;;4.38;;
9176;SDS011;4623;54.310;10.112;2022-07-19T01:08:19;10.65;;;5.00;;
9176;SDS011;4623;54.310;10.112;2022-07-19T01:10:44;4.18;;;3.78;;
9176;SDS011;4623;54.310;10.112;2022-07-19T01:13:13;4.88;;;4.40;;
9176;SDS011;4623;54.310;10.112;2022-07-19T01:15:40;4.75;;;3.88;;
9176;SDS011;4623;54.310;10.112;2022-07-19T01:18:06;4.95;;;4.18;;
9176;SDS011;4623;54.310;10.112;2022-07-19T01:20:32;4.80;;;4.30;;
9176;SDS011;4623;54.310;10.112;2022-07-19T01:22:58;4.60;;;4.20;;
9176;SDS011;4623;54.310;10.112;2022-07-19T01:25:26;4.28;;;3.88;;
9176;SDS011;4623;54.310;10.112;2022-07-19T01:27:56;4.20;;;3.58;;
9176;SDS011;4623;54.310;10.112;2022-07-19T01:30:23;4.32;;;3.60;;
9176;SDS011;4623;54.310;10.112;2022-07-19T01:32:50;5.65;;;3.85;;
9176;SDS011;4623;54.310;10.112;2022-07-19T01:35:16;4.57;;;4.17;;
9176;SDS011;4623;54.310;10.112;2022-07-19T01:37:42;4.68;;;4.15;;
9176;SDS011;4623;54.310;10.112;2022-07-19T01:40:09;4.85;;;4.20;;
9176;SDS011;4623;54.310;10.112;2022-07-19T01:42:37;4.57;;;4.00;;
9176;SDS011;4623;54.310;10.112;2022-07-19T01:45:04;4.20;;;3.80;;
9176;SDS011;4623;54.310;10.112;2022-07-19T01:47:31;4.53;;;4.13;;
9176;SDS011;4623;54.310;10.112;2022-07-19T01:49:56;4.63;;;4.22;;
9176;SDS011;4623;54.310;10.112;2022-07-19T01:52:22;6.20;;;4.20;;
9176;SDS011;4623;54.310;10.112;2022-07-19T01:54:48;5.22;;;4.50;;
9176;SDS011;4623;54.310;10.112;2022-07-19T01:57:13;4.40;;;3.87;;
9176;SDS011;4623;54.310;10.112;2022-07-19T01:59:39;6.37;;;4.20;;
9176;SDS011;4623;54.310;10.112;2022-07-19T02:02:05;4.90;;;3.97;;
9176;SDS011;4623;54.310;10.112;2022-07-19T02:04:31;4.03;;;3.73;;
9176;SDS011;4623;54.310;10.112;2022-07-19T02:06:57;4.27;;;3.87;;
9176;SDS011;4623;54.310;10.112;2022-07-19T02:09:23;5.13;;;3.90;;
9176;SDS011;4623;54.310;10.112;2022-07-19T02:11:49;4.27;;;3.87;;
9176;SDS011;4623;54.310;10.112;2022-07-19T02:14:15;4.33;;;3.73;;
9176;SDS011;4623;54.310;10.112;2022-07-19T02:16:40;5.33;;;4.10;;
9176;SDS011;4623;54.310;10.112;2022-07-19T02:19:06;4.20;;;3.80;;
9176;SDS011;4623;54.310;10.112;2022-07-19T02:21:33;4.50;;;4.10;;
9176;SDS011;4623;54.310;10.112;2022-07-19T02:23:59;4.50;;;4.07;;
9176;SDS011;4623;54.310;10.112;2022-07-19T02:26:25;5.03;;;3.60;;
9176;SDS011;4623;54.310;10.112;2022-07-19T02:28:51;8.43;;;4.60;;
9176;SDS011;4623;54.310;10.112;2022-07-19T02:31:17;7.60;;;4.93;;
9176;SDS011;4623;54.310;10.112;2022-07-19T02:33:43;5.63;;;4.50;;
9176;SDS011;4623;54.310;10.112;2022-07-19T02:36:09;4.93;;;4.40;;
9176;SDS011;4623;54.310;10.112;2022-07-19T02:38:35;4.10;;;3.77;;
9176;SDS011;4623;54.310;10.112;2022-07-19T02:41:01;5.03;;;4.47;;
9176;SDS011;4623;54.310;10.112;2022-07-19T02:43:26;5.17;;;4.47;;
9176;SDS011;4623;54.310;10.112;2022-07-19T02:45:52;5.17;;;4.40;;
9176;SDS011;4623;54.310;10.112;2022-07-19T02:48:18;5.33;;;4.17;;
9176;SDS011;4623;54.310;10.112;2022-07-19T02:50:44;5.50;;;4.70;;
9176;SDS011;4623;54.310;10.112;2022-07-19T02:53:09;6.57;;;4.87;;
9176;SDS011;4623;54.310;10.112;2022-07-19T02:55:37;4.10;;;3.70;;
9176;SDS011;4623;54.310;10.112;2022-07-19T02:58:03;4.90;;;4.40;;
9176;SDS011;4623;54.310;10.112;2022-07-19T03:00:29;4.10;;;3.70;;
9176;SDS011;4623;54.310;10.112;2022-07-19T03:02:56;6.53;;;4.23;;
9176;SDS011;4623;54.310;10.112;2022-07-19T03:05:43;4.53;;;4.10;;
9176;SDS011;4623;54.310;10.112;2022-07-19T03:08:09;5.70;;;4.47;;
9176;SDS011;4623;54.310;10.112;2022-07-19T03:10:35;4.93;;;4.20;;
9176;SDS011;4623;54.310;10.112;2022-07-19T03:13:01;5.63;;;5.07;;
9176;SDS011;4623;54.310;10.112;2022-07-19T03:15:27;4.67;;;4.17;;
9176;SDS011;4623;54.310;10.112;2022-07-19T03:17:53;6.03;;;4.47;;
9176;SDS011;4623;54.310;10.112;2022-07-19T03:20:18;5.17;;;4.67;;
9176;SDS011;4623;54.310;10.112;2022-07-19T03:22:44;4.80;;;4.37;;
9176;SDS011;4623;54.310;10.112;2022-07-19T03:25:09;5.33;;;4.83;;
9176;SDS011;4623;54.310;10.112;2022-07-19T03:27:35;5.67;;;4.20;;
9176;SDS011;4623;54.310;10.112;2022-07-19T03:30:01;5.17;;;4.67;;
9176;SDS011;4623;54.310;10.112;2022-07-19T03:32:26;7.50;;;4.20;;
9176;SDS011;4623;54.310;10.112;2022-07-19T03:34:52;5.50;;;4.90;;
9176;SDS011;4623;54.310;10.112;2022-07-19T03:37:18;4.67;;;4.20;;
9176;SDS011;4623;54.310;10.112;2022-07-19T03:39:43;5.60;;;4.97;;
9176;SDS011;4623;54.310;10.112;2022-07-19T03:42:09;5.00;;;4.50;;
9176;SDS011;4623;54.310;10.112;2022-07-19T03:44:35;5.67;;;5.10;;
9176;SDS011;4623;54.310;10.112;2022-07-19T03:47:00;4.70;;;4.30;;
9176;SDS011;4623;54.310;10.112;2022-07-19T03:49:26;5.17;;;4.67;;
9176;SDS011;4623;54.310;10.112;2022-07-19T03:51:52;5.93;;;4.77;;
9176;SDS011;4623;54.310;10.112;2022-07-19T03:54:18;5.17;;;4.30;;
9176;SDS011;4623;54.310;10.112;2022-07-19T03:56:43;5.73;;;5.13;;
9176;SDS011;4623;54.310;10.112;2022-07-19T03:59:09;5.77;;;5.03;;
9176;SDS011;4623;54.310;10.112;2022-07-19T04:01:34;6.80;;;4.80;;
9176;SDS011;4623;54.310;10.112;2022-07-19T04:04:02;5.20;;;4.70;;
9176;SDS011;4623;54.310;10.112;2022-07-19T04:06:28;6.13;;;5.53;;
9176;SDS011;4623;54.310;10.112;2022-07-19T04:08:54;5.13;;;4.47;;
9176;SDS011;4623;54.310;10.112;2022-07-19T04:11:20;5.20;;;4.70;;
9176;SDS011;4623;54.310;10.112;2022-07-19T04:13:45;5.33;;;4.53;;
9176;SDS011;4623;54.310;10.112;2022-07-19T04:16:11;6.13;;;4.93;;
9176;SDS011;4623;54.310;10.112;2022-07-19T04:18:37;7.67;;;5.70;;
9176;SDS011;4623;54.310;10.112;2022-07-19T04:21:03;5.10;;;4.60;;
9176;SDS011;4623;54.310;10.112;2022-07-19T04:23:30;5.50;;;4.93;;
9176;SDS011;4623;54.310;10.112;2022-07-19T04:25:56;7.67;;;5.17;;
9176;SDS011;4623;54.310;10.112;2022-07-19T04:28:21;5.13;;;4.50;;
9176;SDS011;4623;54.310;10.112;2022-07-19T04:30:47;5.13;;;4.63;;
9176;SDS011;4623;54.310;10.112;2022-07-19T04:33:14;5.27;;;4.77;;
9176;SDS011;4623;54.310;10.112;2022-07-19T04:35:40;5.00;;;4.50;;
9176;SDS011;4623;54.310;10.112;2022-07-19T04:38:06;5.30;;;4.50;;
9176;SDS011;4623;54.310;10.112;2022-07-19T04:40:31;5.57;;;4.47;;
9176;SDS011;4623;54.310;10.112;2022-07-19T04:42:57;5.63;;;4.87;;
9176;SDS011;4623;54.310;10.112;2022-07-19T04:45:23;5.33;;;4.83;;
9176;SDS011;4623;54.310;10.112;2022-07-19T04:47:48;5.73;;;5.17;;
9176;SDS011;4623;54.310;10.112;2022-07-19T04:50:14;5.73;;;4.70;;
9176;SDS011;4623;54.310;10.112;2022-07-19T04:52:40;5.80;;;4.10;;
9176;SDS011;4623;54.310;10.112;2022-07-19T04:55:06;4.93;;;4.43;;
9176;SDS011;4623;54.310;10.112;2022-07-19T04:57:32;4.53;;;4.13;;
9176;SDS011;4623;54.310;10.112;2022-07-19T04:59:57;4.80;;;4.30;;
9176;SDS011;4623;54.310;10.112;2022-07-19T05:02:23;5.50;;;5.00;;
9176;SDS011;4623;54.310;10.112;2022-07-19T05:04:48;5.15;;;4.65;;
9176;SDS011;4623;54.310;10.112;2022-07-19T05:07:14;5.70;;;4.57;;
9176;SDS011;4623;54.310;10.112;2022-07-19T05:09:40;4.55;;;4.15;;
9176;SDS011;4623;54.310;10.112;2022-07-19T05:12:05;5.45;;;4.93;;
9176;SDS011;4623;54.310;10.112;2022-07-19T05:14:32;4.75;;;4.32;;
9176;SDS011;4623;54.310;10.112;2022-07-19T05:16:58;5.40;;;4.40;;
9176;SDS011;4623;54.310;10.112;2022-07-19T05:19:25;5.85;;;4.82;;
9176;SDS011;4623;54.310;10.112;2022-07-19T05:21:50;6.10;;;5.50;;
9176;SDS011;4623;54.310;10.112;2022-07-19T05:24:16;5.15;;;4.65;;
9176;SDS011;4623;54.310;10.112;2022-07-19T05:26:42;5.05;;;4.55;;
9176;SDS011;4623;54.310;10.112;2022-07-19T05:29:08;4.28;;;3.78;;
9176;SDS011;4623;54.310;10.112;2022-07-19T05:31:33;5.57;;;5.03;;
9176;SDS011;4623;54.310;10.112;2022-07-19T05:33:59;4.22;;;3.80;;
9176;SDS011;4623;54.310;10.112;2022-07-19T05:36:25;5.60;;;4.25;;
9176;SDS011;4623;54.310;10.112;2022-07-19T05:38:51;5.47;;;4.30;;
9176;SDS011;4623;54.310;10.112;2022-07-19T05:41:18;5.15;;;4.40;;
9176;SDS011;4623;54.310;10.112;2022-07-19T05:43:46;5.10;;;4.10;;
9176;SDS011;4623;54.310;10.112;2022-07-19T05:46:13;4.45;;;4.05;;
9176;SDS011;4623;54.310;10.112;2022-07-19T05:48:38;3.97;;;3.65;;
9176;SDS011;4623;54.310;10.112;2022-07-19T05:51:04;4.32;;;3.58;;
9176;SDS011;4623;54.310;10.112;2022-07-19T05:53:30;4.70;;;4.20;;
9176;SDS011;4623;54.310;10.112;2022-07-19T05:55:55;4.10;;;3.70;;
9176;SDS011;4623;54.310;10.112;2022-07-19T05:58:21;5.90;;;4.25;;
9176;SDS011;4623;54.310;10.112;2022-07-19T06:00:48;5.43;;;3.90;;
9176;SDS011;4623;54.310;10.112;2022-07-19T06:03:32;5.20;;;4.38;;
9176;SDS011;4623;54.310;10.112;2022-07-19T06:05:58;6.05;;;4.60;;
9176;SDS011;4623;54.310;10.112;2022-07-19T06:08:24;5.53;;;4.65;;
9176;SDS011;4623;54.310;10.112;2022-07-19T06:10:49;5.00;;;3.92;;
9176;SDS011;4623;54.310;10.112;2022-07-19T06:13:15;5.63;;;4.28;;
9176;SDS011;4623;54.310;10.112;2022-07-19T06:15:41;4.82;;;3.97;;
9176;SDS011;4623;54.310;10.112;2022-07-19T06:18:06;4.75;;;4.00;;
9176;SDS011;4623;54.310;10.112;2022-07-19T06:20:32;4.97;;;4.10;;
9176;SDS011;4623;54.310;10.112;2022-07-19T06:22:58;5.78;;;4.00;;
9176;SDS011;4623;54.310;10.112;2022-07-19T06:25:23;4.95;;;4.20;;
9176;SDS011;4623;54.310;10.112;2022-07-19T06:27:49;4.00;;;3.60;;
9176;SDS011;4623;54.310;10.112;2022-07-19T06:30:14;3.90;;;3.55;;
9176;SDS011;4623;54.310;10.112;2022-07-19T06:32:40;4.80;;;4.00;;
9176;SDS011;4623;54.310;10.112;2022-07-19T06:35:06;5.57;;;3.53;;
9176;SDS011;4623;54.310;10.112;2022-07-19T06:37:32;5.53;;;4.00;;
9176;SDS011;4623;54.310;10.112;2022-07-19T06:39:57;6.90;;;4.82;;
9176;SDS011;4623;54.310;10.112;2022-07-19T06:42:23;4.40;;;3.97;;
9176;SDS011;4623;54.310;10.112;2022-07-19T06:44:48;5.40;;;4.15;;
9176;SDS011;4623;54.310;10.112;2022-07-19T06:47:14;5.28;;;3.90;;
9176;SDS011;4623;54.310;10.112;2022-07-19T06:49:40;6.65;;;4.60;;
9176;SDS011;4623;54.310;10.112;2022-07-19T06:52:06;4.32;;;3.92;;
9176;SDS011;4623;54.310;10.112;2022-07-19T06:54:32;4.55;;;4.15;;
9176;SDS011;4623;54.310;10.112;2022-07-19T06:56:57;3.65;;;3.35;;
9176;SDS011;4623;54.310;10.112;2022-07-19T06:59:23;4.45;;;3.45;;
9176;SDS011;4623;54.310;10.112;2022-07-19T07:01:49;5.95;;;4.00;;
9176;SDS011;4623;54.310;10.112;2022-07-19T07:04:14;3.97;;;3.58;;
9176;SDS011;4623;54.310;10.112;2022-07-19T07:06:40;3.65;;;3.30;;
9176;SDS011;4623;54.310;10.112;2022-07-19T07:09:06;5.93;;;4.70;;
9176;SDS011;4623;54.310;10.112;2022-07-19T07:11:31;4.50;;;3.70;;
9176;SDS011;4623;54.310;10.112;2022-07-19T07:13:57;5.50;;;3.42;;
9176;SDS011;4623;54.310;10.112;2022-07-19T07:16:22;4.00;;;3.50;;
9176;SDS011;4623;54.310;10.112;2022-07-19T07:18:48;4.50;;;3.83;;
9176;SDS011;4623;54.310;10.112;2022-07-19T07:21:14;5.10;;;4.43;;
9176;SDS011;4623;54.310;10.112;2022-07-19T07:23:39;4.15;;;3.72;;
9176;SDS011;4623;54.310;10.112;2022-07-19T07:26:05;8.65;;;4.00;;
9176;SDS011;4623;54.310;10.112;2022-07-19T07:28:31;4.72;;;4.22;;
9176;SDS011;4623;54.310;10.112;2022-07-19T07:30:56;4.75;;;4.10;;
9176;SDS011;4623;54.310;10.112;2022-07-19T07:33:22;7.10;;;4.70;;
9176;SDS011;4623;54.310;10.112;2022-07-19T07:35:48;4.32;;;3.53;;
9176;SDS011;4623;54.310;10.112;2022-07-19T07:38:13;6.50;;;4.47;;
9176;SDS011;4623;54.310;10.112;2022-07-19T07:40:39;4.93;;;4.30;;
9176;SDS011;4623;54.310;10.112;2022-07-19T07:43:04;4.43;;;4.03;;
9176;SDS011;4623;54.310;10.112;2022-07-19T07:45:31;4.82;;;4.32;;
9176;SDS011;4623;54.310;10.112;2022-07-19T07:47:57;4.93;;;3.78;;
9176;SDS011;4623;54.310;10.112;2022-07-19T07:50:23;4.53;;;4.13;;
9176;SDS011;4623;54.310;10.112;2022-07-19T07:52:49;4.07;;;3.28;;
9176;SDS011;4623;54.310;10.112;2022-07-19T07:55:15;3.58;;;3.28;;
9176;SDS011;4623;54.310;10.112;2022-07-19T07:57:40;11.13;;;9.98;;
9176;SDS011;4623;54.310;10.112;2022-07-19T08:00:06;6.22;;;5.32;;
9176;SDS011;4623;54.310;10.112;2022-07-19T08:02:41;4.35;;;3.78;;
9176;SDS011;4623;54.310;10.112;2022-07-19T08:05:08;4.53;;;3.47;;
9176;SDS011;4623;54.310;10.112;2022-07-19T08:07:34;4.13;;;3.72;;
9176;SDS011;4623;54.310;10.112;2022-07-19T08:10:00;5.88;;;4.55;;
9176;SDS011;4623;54.310;10.112;2022-07-19T08:12:27;3.78;;;3.40;;
9176;SDS011;4623;54.310;10.112;2022-07-19T08:14:52;6.00;;;3.92;;
9176;SDS011;4623;54.310;10.112;2022-07-19T08:17:18;5.47;;;4.45;;
9176;SDS011;4623;54.310;10.112;2022-07-19T08:19:44;4.32;;;3.92;;
9176;SDS011;4623;54.310;10.112;2022-07-19T08:22:09;6.72;;;4.35;;
9176;SDS011;4623;54.310;10.112;2022-07-19T08:24:38;5.90;;;4.22;;
9176;SDS011;4623;54.310;10.112;2022-07-19T08:27:04;4.30;;;3.53;;
9176;SDS011;4623;54.310;10.112;2022-07-19T08:29:30;4.63;;;3.40;;
9176;SDS011;4623;54.310;10.112;2022-07-19T08:31:55;3.63;;;3.33;;
9176;SDS011;4623;54.310;10.112;2022-07-19T08:34:21;5.18;;;3.83;;
9176;SDS011;4623;54.310;10.112;2022-07-19T08:36:46;3.90;;;3.50;;
9176;SDS011;4623;54.310;10.112;2022-07-19T08:39:12;4.72;;;4.03;;
9176;SDS011;4623;54.310;10.112;2022-07-19T08:41:44;6.90;;;3.95;;
9176;SDS011;4623;54.310;10.112;2022-07-19T08:44:10;4.75;;;4.30;;
9176;SDS011;4623;54.310;10.112;2022-07-19T08:46:36;5.20;;;4.28;;
9176;SDS011;4623;54.310;10.112;2022-07-19T08:49:02;4.03;;;3.63;;
9176;SDS011;4623;54.310;10.112;2022-07-19T08:51:28;4.97;;;3.95;;
9176;SDS011;4623;54.310;10.112;2022-07-19T08:53:54;5.65;;;3.90;;
9176;SDS011;4623;54.310;10.112;2022-07-19T08:56:20;4.57;;;4.10;;
9176;SDS011;4623;54.310;10.112;2022-07-19T08:59:05;4.80;;;3.70;;
9176;SDS011;4623;54.310;10.112;2022-07-19T09:01:31;3.67;;;3.35;;
9176;SDS011;4623;54.310;10.112;2022-07-19T09:06:37;4.85;;;3.63;;
9176;SDS011;4623;54.310;10.112;2022-07-19T09:09:03;4.75;;;4.25;;
9176;SDS011;4623;54.310;10.112;2022-07-19T09:11:33;5.88;;;3.95;;
9176;SDS011;4623;54.310;10.112;2022-07-19T09:14:07;4.30;;;3.17;;
9176;SDS011;4623;54.310;10.112;2022-07-19T09:19:19;4.40;;;3.55;;
9176;SDS011;4623;54.310;10.112;2022-07-19T09:24:18;5.00;;;4.10;;
9176;SDS011;4623;54.310;10.112;2022-07-19T09:29:42;3.95;;;3.58;;
9176;SDS011;4623;54.310;10.112;2022-07-19T09:32:10;4.95;;;4.03;;
9176;SDS011;4623;54.310;10.112;2022-07-19T09:37:22;3.33;;;3.10;;
9176;SDS011;4623;54.310;10.112;2022-07-19T09:40:03;3.70;;;3.40;;
9176;SDS011;4623;54.310;10.112;2022-07-19T09:42:40;4.25;;;3.75;;
9176;SDS011;4623;54.310;10.112;2022-07-19T09:45:07;3.88;;;3.13;;
9176;SDS011;4623;54.310;10.112;2022-07-19T09:47:46;5.60;;;2.60;;
9176;SDS011;4623;54.310;10.112;2022-07-19T09:50:17;2.95;;;2.75;;
9176;SDS011;4623;54.310;10.112;2022-07-19T09:52:44;4.95;;;3.85;;
9176;SDS011;4623;54.310;10.112;2022-07-19T09:55:11;4.18;;;3.15;;
9176;SDS011;4623;54.310;10.112;2022-07-19T09:57:48;3.70;;;3.40;;
9176;SDS011;4623;54.310;10.112;2022-07-19T10:00:15;3.42;;;3.13;;
9176;SDS011;4623;54.310;10.112;2022-07-19T10:02:44;3.42;;;3.13;;
9176;SDS011;4623;54.310;10.112;2022-07-19T10:05:12;4.30;;;3.90;;
9176;SDS011;4623;54.310;10.112;2022-07-19T10:07:38;4.40;;;4.00;;
9176;SDS011;4623;54.310;10.112;2022-07-19T10:10:05;3.83;;;3.47;;
9176;SDS011;4623;54.310;10.112;2022-07-19T10:12:36;3.10;;;2.90;;
9176;SDS011;4623;54.310;10.112;2022-07-19T10:15:06;3.50;;;3.20;;
9176;SDS011;4623;54.310;10.112;2022-07-19T10:20:10;3.92;;;3.45;;
9176;SDS011;4623;54.310;10.112;2022-07-19T10:22:48;3.28;;;2.97;;
9176;SDS011;4623;54.310;10.112;2022-07-19T10:25:15;3.25;;;2.95;;
9176;SDS011;4623;54.310;10.112;2022-07-19T10:27:51;3.47;;;3.17;;
9176;SDS011;4623;54.310;10.112;2022-07-19T10:30:21;3.63;;;3.33;;
9176;SDS011;4623;54.310;10.112;2022-07-19T10:32:50;3.30;;;3.10;;
9176;SDS011;4623;54.310;10.112;2022-07-19T10:37:54;7.35;;;3.97;;
9176;SDS011;4623;54.310;10.112;2022-07-19T10:40:38;3.72;;;3.25;;
9176;SDS011;4623;54.310;10.112;2022-07-19T10:43:12;3.70;;;3.20;;
9176;SDS011;4623;54.310;10.112;2022-07-19T10:45:42;4.65;;;3.38;;
9176;SDS011;4623;54.310;10.112;2022-07-19T10:48:39;3.30;;;3.10;;
9176;SDS011;4623;54.310;10.112;2022-07-19T10:51:06;3.08;;;2.83;;
9176;SDS011;4623;54.310;10.112;2022-07-19T10:56:16;4.22;;;3.60;;
9176;SDS011;4623;54.310;10.112;2022-07-19T10:58:50;3.50;;;3.20;;
9176;SDS011;4623;54.310;10.112;2022-07-19T11:01:17;3.85;;;3.25;;
9176;SDS011;4623;54.310;10.112;2022-07-19T11:03:47;3.00;;;2.80;;
9176;SDS011;4623;54.310;10.112;2022-07-19T11:06:24;3.90;;;3.60;;
9176;SDS011;4623;54.310;10.112;2022-07-19T11:08:57;3.45;;;3.13;;
9176;SDS011;4623;54.310;10.112;2022-07-19T11:11:24;3.55;;;3.08;;
9176;SDS011;4623;54.310;10.112;2022-07-19T11:13:54;3.60;;;3.30;;
9176;SDS011;4623;54.310;10.112;2022-07-19T11:16:25;4.43;;;4.07;;
9176;SDS011;4623;54.310;10.112;2022-07-19T11:19:01;3.85;;;3.55;;
9176;SDS011;4623;54.310;10.112;2022-07-19T11:21:32;5.10;;;3.67;;
9176;SDS011;4623;54.310;10.112;2022-07-19T11:23:59;3.90;;;3.60;;
9176;SDS011;4623;54.310;10.112;2022-07-19T11:26:25;4.90;;;3.78;;
9176;SDS011;4623;54.310;10.112;2022-07-19T11:28:52;3.50;;;3.20;;
9176;SDS011;4623;54.310;10.112;2022-07-19T11:31:22;3.40;;;3.10;;
9176;SDS011;4623;54.310;10.112;2022-07-19T11:33:50;2.88;;;2.67;;
9176;SDS011;4623;54.310;10.112;2022-07-19T11:36:18;3.70;;;3.40;;
9176;SDS011;4623;54.310;10.112;2022-07-19T11:38:45;3.33;;;3.03;;
9176;SDS011;4623;54.310;10.112;2022-07-19T11:41:45;3.20;;;2.90;;
9176;SDS011;4623;54.310;10.112;2022-07-19T11:44:05;4.22;;;3.85;;
9176;SDS011;4623;54.310;10.112;2022-07-19T11:46:33;5.55;;;3.70;;
9176;SDS011;4623;54.310;10.112;2022-07-19T11:49:03;3.55;;;3.28;;
9176;SDS011;4623;54.310;10.112;2022-07-19T11:51:30;4.13;;;2.88;;
9176;SDS011;4623;54.310;10.112;2022-07-19T11:53:57;5.75;;;2.80;;
9176;SDS011;4623;54.310;10.112;2022-07-19T11:56:31;4.03;;;3.00;;
9176;SDS011;4623;54.310;10.112;2022-07-19T11:58:59;4.32;;;3.45;;
9176;SDS011;4623;54.310;10.112;2022-07-19T12:01:30;3.53;;;3.22;;
9176;SDS011;4623;54.310;10.112;2022-07-19T12:03:57;4.10;;;3.70;;
9176;SDS011;4623;54.310;10.112;2022-07-19T12:06:42;3.42;;;2.88;;
9176;SDS011;4623;54.310;10.112;2022-07-19T12:09:16;2.95;;;2.75;;
9176;SDS011;4623;54.310;10.112;2022-07-19T12:11:51;3.35;;;3.13;;
9176;SDS011;4623;54.310;10.112;2022-07-19T12:16:48;4.07;;;3.67;;
9176;SDS011;4623;54.310;10.112;2022-07-19T12:19:34;3.58;;;3.28;;
9176;SDS011;4623;54.310;10.112;2022-07-19T12:21:59;4.35;;;3.95;;
9176;SDS011;4623;54.310;10.112;2022-07-19T12:24:26;4.35;;;3.95;;
9176;SDS011;4623;54.310;10.112;2022-07-19T12:27:01;3.63;;;3.33;;
9176;SDS011;4623;54.310;10.112;2022-07-19T12:29:28;3.45;;;3.13;;
9176;SDS011;4623;54.310;10.112;2022-07-19T12:32:08;4.75;;;3.10;;
9176;SDS011;4623;54.310;10.112;2022-07-19T12:34:46;3.97;;;3.67;;
9176;SDS011;4623;54.310;10.112;2022-07-19T12:37:17;3.35;;;3.05;;
9176;SDS011;4623;54.310;10.112;2022-07-19T12:39:54;3.20;;;2.90;;
9176;SDS011;4623;54.310;10.112;2022-07-19T12:42:21;3.30;;;3.00;;
9176;SDS011;4623;54.310;10.112;2022-07-19T12:44:47;3.42;;;3.13;;
9176;SDS011;4623;54.310;10.112;2022-07-19T12:47:14;4.25;;;3.42;;
9176;SDS011;4623;54.310;10.112;2022-07-19T12:49:44;3.45;;;3.15;;
9176;SDS011;4623;54.310;10.112;2022-07-19T12:52:12;3.95;;;3.65;;
9176;SDS011;4623;54.310;10.112;2022-07-19T12:54:38;4.13;;;2.83;;
9176;SDS011;4623;54.310;10.112;2022-07-19T12:57:04;3.63;;;3.33;;
9176;SDS011;4623;54.310;10.112;2022-07-19T12:59:30;3.60;;;3.30;;
9176;SDS011;4623;54.310;10.112;2022-07-19T13:02:05;5.25;;;3.28;;
9176;SDS011;4623;54.310;10.112;2022-07-19T13:04:36;3.05;;;2.85;;
9176;SDS011;4623;54.310;10.112;2022-07-19T13:07:02;3.63;;;3.28;;
9176;SDS011;4623;54.310;10.112;2022-07-19T13:09:28;3.70;;;2.95;;
9176;SDS011;4623;54.310;10.112;2022-07-19T13:11:53;26.10;;;3.58;;
9176;SDS011;4623;54.310;10.112;2022-07-19T13:14:19;5.82;;;2.90;;
9176;SDS011;4623;54.310;10.112;2022-07-19T13:16:45;4.38;;;3.40;;
9176;SDS011;4623;54.310;10.112;2022-07-19T13:19:10;14.88;;;3.38;;
9176;SDS011;4623;54.310;10.112;2022-07-19T13:21:36;3.33;;;2.92;;
9176;SDS011;4623;54.310;10.112;2022-07-19T13:24:02;2.83;;;2.63;;
9176;SDS011;4623;54.310;10.112;2022-07-19T13:26:28;2.88;;;2.67;;
9176;SDS011;4623;54.310;10.112;2022-07-19T13:28:53;3.67;;;3.25;;
9176;SDS011;4623;54.310;10.112;2022-07-19T13:31:19;3.30;;;2.95;;
9176;SDS011;4623;54.310;10.112;2022-07-19T13:33:45;3.45;;;2.63;;
9176;SDS011;4623;54.310;10.112;2022-07-19T13:36:10;2.95;;;2.40;;
9176;SDS011;4623;54.310;10.112;2022-07-19T13:38:36;4.22;;;3.33;;
9176;SDS011;4623;54.310;10.112;2022-07-19T13:41:05;3.38;;;3.08;;
9176;SDS011;4623;54.310;10.112;2022-07-19T13:43:31;3.15;;;2.95;;
9176;SDS011;4623;54.310;10.112;2022-07-19T13:45:57;4.78;;;3.40;;
9176;SDS011;4623;54.310;10.112;2022-07-19T13:48:24;2.67;;;2.42;;
9176;SDS011;4623;54.310;10.112;2022-07-19T13:50:50;2.53;;;2.33;;
9176;SDS011;4623;54.310;10.112;2022-07-19T13:53:15;4.28;;;2.47;;
9176;SDS011;4623;54.310;10.112;2022-07-19T13:55:41;2.60;;;2.40;;
9176;SDS011;4623;54.310;10.112;2022-07-19T13:58:07;2.80;;;2.60;;
9176;SDS011;4623;54.310;10.112;2022-07-19T14:00:33;4.88;;;3.15;;
9176;SDS011;4623;54.310;10.112;2022-07-19T14:02:59;3.42;;;3.17;;
9176;SDS011;4623;54.310;10.112;2022-07-19T14:05:25;3.00;;;2.72;;
9176;SDS011;4623;54.310;10.112;2022-07-19T14:07:50;2.90;;;2.70;;
9176;SDS011;4623;54.310;10.112;2022-07-19T14:10:16;2.47;;;2.28;;
9176;SDS011;4623;54.310;10.112;2022-07-19T14:12:42;2.45;;;2.25;;
9176;SDS011;4623;54.310;10.112;2022-07-19T14:15:08;3.63;;;2.90;;
9176;SDS011;4623;54.310;10.112;2022-07-19T14:17:34;2.83;;;2.53;;
9176;SDS011;4623;54.310;10.112;2022-07-19T14:19:59;2.70;;;2.50;;
9176;SDS011;4623;54.310;10.112;2022-07-19T14:22:25;3.22;;;2.92;;
9176;SDS011;4623;54.310;10.112;2022-07-19T14:24:51;2.80;;;2.47;;
9176;SDS011;4623;54.310;10.112;2022-07-19T14:27:16;3.00;;;2.80;;
9176;SDS011;4623;54.310;10.112;2022-07-19T14:29:42;2.65;;;2.45;;
9176;SDS011;4623;54.310;10.112;2022-07-19T14:32:08;3.42;;;2.70;;
9176;SDS011;4623;54.310;10.112;2022-07-19T14:34:33;3.35;;;3.05;;
9176;SDS011;4623;54.310;10.112;2022-07-19T14:36:59;3.72;;;2.90;;
9176;SDS011;4623;54.310;10.112;2022-07-19T14:39:24;2.83;;;2.63;;
9176;SDS011;4623;54.310;10.112;2022-07-19T14:41:50;6.15;;;3.17;;
9176;SDS011;4623;54.310;10.112;2022-07-19T14:44:16;3.05;;;2.85;;
9176;SDS011;4623;54.310;10.112;2022-07-19T14:46:42;2.88;;;2.67;;
9176;SDS011;4623;54.310;10.112;2022-07-19T14:49:07;3.35;;;3.05;;
9176;SDS011;4623;54.310;10.112;2022-07-19T14:51:36;3.60;;;3.30;;
9176;SDS011;4623;54.310;10.112;2022-07-19T14:54:02;3.97;;;3.58;;
9176;SDS011;4623;54.310;10.112;2022-07-19T14:56:28;7.57;;;3.22;;
9176;SDS011;4623;54.310;10.112;2022-07-19T14:58:53;4.30;;;3.50;;
9176;SDS011;4623;54.310;10.112;2022-07-19T15:01:19;3.38;;;3.03;;
9176;SDS011;4623;54.310;10.112;2022-07-19T15:03:46;3.58;;;3.28;;
9176;SDS011;4623;54.310;10.112;2022-07-19T15:06:12;4.00;;;3.55;;
9176;SDS011;4623;54.310;10.112;2022-07-19T15:08:38;4.32;;;2.80;;
9176;SDS011;4623;54.310;10.112;2022-07-19T15:11:04;3.13;;;2.83;;
9176;SDS011;4623;54.310;10.112;2022-07-19T15:13:30;2.78;;;2.53;;
9176;SDS011;4623;54.310;10.112;2022-07-19T15:15:56;2.50;;;2.30;;
9176;SDS011;4623;54.310;10.112;2022-07-19T15:18:21;3.33;;;2.85;;
9176;SDS011;4623;54.310;10.112;2022-07-19T15:20:47;3.35;;;2.60;;
9176;SDS011;4623;54.310;10.112;2022-07-19T15:23:13;4.50;;;3.35;;
9176;SDS011;4623;54.310;10.112;2022-07-19T15:25:38;2.95;;;2.75;;